Aviation Digital Data Service (ADDS)

Output produced by METARs form (0110 UTC 20 April 2019)
found at http://www.aviationweather.gov/metar/data/
 
METAR text: BIRK 200100Z 18015KT 9999 VCSH FEW024CB SCT033 BKN054 06/02 Q1000
Conditions at: BIRK (REYKJAVIK (NOTAM, IS) observed 0100 UTC 20 April 2019
Temperature: 6.0°C (43°F)
Dewpoint: 2.0°C (36°F) [RH = 75%]
Pressure (altimeter): 29.53 inches Hg (1000.0 mb)
Winds: from the S (180 degrees) at 17 MPH (15 knots; 7.7 m/s)
Visibility: 6 or more miles (10+ km)
Ceiling: 5400 feet AGL
Clouds: few clouds at 2400 feet AGL
scattered clouds at 3300 feet AGL
broken clouds at 5400 feet AGL
Weather: VCSH  (showers in vicinity)

METAR text: BIRK 200000Z 17017KT 9999 VCSH FEW020CB SCT033 BKN065 06/02 Q1001
Conditions at: BIRK (REYKJAVIK (NOTAM, IS) observed 0000 UTC 20 April 2019
Temperature: 6.0°C (43°F)
Dewpoint: 2.0°C (36°F) [RH = 75%]
Pressure (altimeter): 29.56 inches Hg (1001.0 mb)
Winds: from the S (170 degrees) at 20 MPH (17 knots; 8.7 m/s)
Visibility: 6 or more miles (10+ km)
Ceiling: 6500 feet AGL
Clouds: few clouds at 2000 feet AGL
scattered clouds at 3300 feet AGL
broken clouds at 6500 feet AGL
Weather: VCSH  (showers in vicinity)

METAR text: BIRK 192300Z 17018KT 9999 -SHRA FEW023CB SCT028 BKN058 07/02 Q1001
Conditions at: BIRK (REYKJAVIK (NOTAM, IS) observed 2300 UTC 19 April 2019
Temperature: 7.0°C (45°F)
Dewpoint: 2.0°C (36°F) [RH = 70%]
Pressure (altimeter): 29.56 inches Hg (1001.0 mb)
Winds: from the S (170 degrees) at 21 MPH (18 knots; 9.3 m/s)
Visibility: 6 or more miles (10+ km)
Ceiling: 5800 feet AGL
Clouds: few clouds at 2300 feet AGL
scattered clouds at 2800 feet AGL
broken clouds at 5800 feet AGL
Weather: -SHRA  (light rain showers)

METAR text: BIRK 192200Z 17016KT 9999 -SHRA FEW020CB SCT026 BKN045 06/01 Q1001
Conditions at: BIRK (REYKJAVIK (NOTAM, IS) observed 2200 UTC 19 April 2019
Temperature: 6.0°C (43°F)
Dewpoint: 1.0°C (34°F) [RH = 70%]
Pressure (altimeter): 29.56 inches Hg (1001.0 mb)
Winds: from the S (170 degrees) at 18 MPH (16 knots; 8.2 m/s)
Visibility: 6 or more miles (10+ km)
Ceiling: 4500 feet AGL
Clouds: few clouds at 2000 feet AGL
scattered clouds at 2600 feet AGL
broken clouds at 4500 feet AGL
Weather: -SHRA  (light rain showers)

METAR text: BIRK 192100Z 17018KT 9999 VCSH FEW020CB SCT025 BKN044 06/02 Q1001 RESHRA
Conditions at: BIRK (REYKJAVIK (NOTAM, IS) observed 2100 UTC 19 April 2019
Temperature: 6.0°C (43°F)
Dewpoint: 2.0°C (36°F) [RH = 75%]
Pressure (altimeter): 29.56 inches Hg (1001.0 mb)
Winds: from the S (170 degrees) at 21 MPH (18 knots; 9.3 m/s)
Visibility: 6 or more miles (10+ km)
Ceiling: 4400 feet AGL
Clouds: few clouds at 2000 feet AGL
scattered clouds at 2500 feet AGL
broken clouds at 4400 feet AGL
Weather: VCSH  (showers in vicinity)

METAR text: BIRK 192000Z 18018G29KT 9999 VCSH FEW017CB SCT024 BKN044 06/01 Q1001 RESHRA
Conditions at: BIRK (REYKJAVIK (NOTAM, IS) observed 2000 UTC 19 April 2019
Temperature: 6.0°C (43°F)
Dewpoint: 1.0°C (34°F) [RH = 70%]
Pressure (altimeter): 29.56 inches Hg (1001.0 mb)
Winds: from the S (180 degrees) at 21 MPH (18 knots; 9.3 m/s)
gusting to 33 MPH (29 knots; 14.9 m/s)
Visibility: 6 or more miles (10+ km)
Ceiling: 4400 feet AGL
Clouds: few clouds at 1700 feet AGL
scattered clouds at 2400 feet AGL
broken clouds at 4400 feet AGL
Weather: VCSH  (showers in vicinity)

METAR text: BIRK 191900Z 18019G32KT 9999 -SHRA FEW020 BKN024 OVC040 08/02 Q1000
Conditions at: BIRK (REYKJAVIK (NOTAM, IS) observed 1900 UTC 19 April 2019
Temperature: 8.0°C (46°F)
Dewpoint: 2.0°C (36°F) [RH = 66%]
Pressure (altimeter): 29.53 inches Hg (1000.0 mb)
Winds: from the S (180 degrees) at 22 MPH (19 knots; 9.8 m/s)
gusting to 37 MPH (32 knots; 16.5 m/s)
Visibility: 6 or more miles (10+ km)
Ceiling: 2400 feet AGL
Clouds: few clouds at 2000 feet AGL
broken clouds at 2400 feet AGL
overcast cloud deck at 4000 feet AGL
Weather: -SHRA  (light rain showers)

METAR text: BIRK 191800Z 18023KT 9999 BKN023 08/02 Q1000
Conditions at: BIRK (REYKJAVIK (NOTAM, IS) observed 1800 UTC 19 April 2019
Temperature: 8.0°C (46°F)
Dewpoint: 2.0°C (36°F) [RH = 66%]
Pressure (altimeter): 29.53 inches Hg (1000.0 mb)
Winds: from the S (180 degrees) at 26 MPH (23 knots; 11.8 m/s)
Visibility: 6 or more miles (10+ km)
Ceiling: 2300 feet AGL
Clouds: broken clouds at 2300 feet AGL
Weather: no significant weather observed at this time

METAR text: BIRK 191700Z 18022G32KT 9999 BKN022 09/04 Q1000
Conditions at: BIRK (REYKJAVIK (NOTAM, IS) observed 1700 UTC 19 April 2019
Temperature: 9.0°C (48°F)
Dewpoint: 4.0°C (39°F) [RH = 71%]
Pressure (altimeter): 29.53 inches Hg (1000.0 mb)
Winds: from the S (180 degrees) at 25 MPH (22 knots; 11.3 m/s)
gusting to 37 MPH (32 knots; 16.5 m/s)
Visibility: 6 or more miles (10+ km)
Ceiling: 2200 feet AGL
Clouds: broken clouds at 2200 feet AGL
Weather: no significant weather observed at this time

METAR text: BIRK 191600Z 18022KT 9999 BKN021 10/05 Q0999 RERA
Conditions at: BIRK (REYKJAVIK (NOTAM, IS) observed 1600 UTC 19 April 2019
Temperature: 10.0°C (50°F)
Dewpoint: 5.0°C (41°F) [RH = 71%]
Pressure (altimeter): 29.50 inches Hg (999.0 mb)
Winds: from the S (180 degrees) at 25 MPH (22 knots; 11.3 m/s)
Visibility: 6 or more miles (10+ km)
Ceiling: 2100 feet AGL
Clouds: broken clouds at 2100 feet AGL
Weather: no significant weather observed at this time

METAR text: BIRK 191500Z 17023G34KT 3500 DZRA BR BKN014 OVC030 09/05 Q0999
Conditions at: BIRK (REYKJAVIK (NOTAM, IS) observed 1500 UTC 19 April 2019
Temperature: 9.0°C (48°F)
Dewpoint: 5.0°C (41°F) [RH = 76%]
Pressure (altimeter): 29.50 inches Hg (999.0 mb)
Winds: from the S (170 degrees) at 26 MPH (23 knots; 11.8 m/s)
gusting to 39 MPH (34 knots; 17.5 m/s)
Visibility: 2.17 miles (3.49 km)
Ceiling: 1400 feet AGL
Clouds: broken clouds at 1400 feet AGL
overcast cloud deck at 3000 feet AGL
Weather: DZ RA BR  (moderate drizzle, moderate rain, mist)

METAR text: BIRK 191400Z 16021KT 9999 BKN018 OVC032 10/06 Q1000
Conditions at: BIRK (REYKJAVIK (NOTAM, IS) observed 1400 UTC 19 April 2019
Temperature: 10.0°C (50°F)
Dewpoint: 6.0°C (43°F) [RH = 76%]
Pressure (altimeter): 29.53 inches Hg (1000.0 mb)
Winds: from the SSE (160 degrees) at 24 MPH (21 knots; 10.8 m/s)
Visibility: 6 or more miles (10+ km)
Ceiling: 1800 feet AGL
Clouds: broken clouds at 1800 feet AGL
overcast cloud deck at 3200 feet AGL
Weather: no significant weather observed at this time

METAR text: BIRK 191300Z 17018G28KT 9999 BKN014 OVC023 10/07 Q1000 RERA
Conditions at: BIRK (REYKJAVIK (NOTAM, IS) observed 1300 UTC 19 April 2019
Temperature: 10.0°C (50°F)
Dewpoint: 7.0°C (45°F) [RH = 82%]
Pressure (altimeter): 29.53 inches Hg (1000.0 mb)
Winds: from the S (170 degrees) at 21 MPH (18 knots; 9.3 m/s)
gusting to 32 MPH (28 knots; 14.4 m/s)
Visibility: 6 or more miles (10+ km)
Ceiling: 1400 feet AGL
Clouds: broken clouds at 1400 feet AGL
overcast cloud deck at 2300 feet AGL
Weather: no significant weather observed at this time

METAR text: BIRK 191200Z 14028G40KT 6000 DZRA BKN016 OVC025 10/06 Q1000
Conditions at: BIRK (REYKJAVIK (NOTAM, IS) observed 1200 UTC 19 April 2019
Temperature: 10.0°C (50°F)
Dewpoint: 6.0°C (43°F) [RH = 76%]
Pressure (altimeter): 29.53 inches Hg (1000.0 mb)
Winds: from the SE (140 degrees) at 32 MPH (28 knots; 14.4 m/s)
gusting to 46 MPH (40 knots; 20.6 m/s)
Visibility: 4 miles ( 6 km)
Ceiling: 1600 feet AGL
Clouds: broken clouds at 1600 feet AGL
overcast cloud deck at 2500 feet AGL
Weather: DZ RA  (moderate drizzle, moderate rain)

METAR text: BIRK 191100Z 12027KT 7000 -RADZ FEW015 BKN025 OVC050 09/06 Q1000
Conditions at: BIRK (REYKJAVIK (NOTAM, IS) observed 1100 UTC 19 April 2019
Temperature: 9.0°C (48°F)
Dewpoint: 6.0°C (43°F) [RH = 81%]
Pressure (altimeter): 29.53 inches Hg (1000.0 mb)
Winds: from the ESE (120 degrees) at 31 MPH (27 knots; 13.9 m/s)
Visibility: 4 miles ( 7 km)
Ceiling: 2500 feet AGL
Clouds: few clouds at 1500 feet AGL
broken clouds at 2500 feet AGL
overcast cloud deck at 5000 feet AGL
Weather: -RA -DZ  (light rain, light drizzle)

METAR text: BIRK 191000Z 12023KT 8000 -RA FEW018 BKN023 OVC049 09/06 Q1001
Conditions at: BIRK (REYKJAVIK (NOTAM, IS) observed 1000 UTC 19 April 2019
Temperature: 9.0°C (48°F)
Dewpoint: 6.0°C (43°F) [RH = 81%]
Pressure (altimeter): 29.56 inches Hg (1001.0 mb)
Winds: from the ESE (120 degrees) at 26 MPH (23 knots; 11.8 m/s)
Visibility: 5 miles ( 8 km)
Ceiling: 2300 feet AGL
Clouds: few clouds at 1800 feet AGL
broken clouds at 2300 feet AGL
overcast cloud deck at 4900 feet AGL
Weather: -RA  (light rain)

METAR text: BIRK 190900Z 12025G37KT 9999 -RA SCT015 BKN020 OVC050 09/06 Q1003
Conditions at: BIRK (REYKJAVIK (NOTAM, IS) observed 0900 UTC 19 April 2019
Temperature: 9.0°C (48°F)
Dewpoint: 6.0°C (43°F) [RH = 81%]
Pressure (altimeter): 29.62 inches Hg (1003.0 mb)
Winds: from the ESE (120 degrees) at 29 MPH (25 knots; 12.9 m/s)
gusting to 43 MPH (37 knots; 19.0 m/s)
Visibility: 6 or more miles (10+ km)
Ceiling: 2000 feet AGL
Clouds: scattered clouds at 1500 feet AGL
broken clouds at 2000 feet AGL
overcast cloud deck at 5000 feet AGL
Weather: -RA  (light rain)

METAR text: BIRK 190800Z 12018G29KT 9999 -RA FEW012 BKN016 OVC050 09/05 Q1004
Conditions at: BIRK (REYKJAVIK (NOTAM, IS) observed 0800 UTC 19 April 2019
Temperature: 9.0°C (48°F)
Dewpoint: 5.0°C (41°F) [RH = 76%]
Pressure (altimeter): 29.65 inches Hg (1004.0 mb)
Winds: from the ESE (120 degrees) at 21 MPH (18 knots; 9.3 m/s)
gusting to 33 MPH (29 knots; 14.9 m/s)
Visibility: 6 or more miles (10+ km)
Ceiling: 1600 feet AGL
Clouds: few clouds at 1200 feet AGL
broken clouds at 1600 feet AGL
overcast cloud deck at 5000 feet AGL
Weather: -RA  (light rain)

METAR text: BIRK 190700Z 12015KT 9999 -RADZ SCT015 BKN022 09/05 Q1004
Conditions at: BIRK (REYKJAVIK (NOTAM, IS) observed 0700 UTC 19 April 2019
Temperature: 9.0°C (48°F)
Dewpoint: 5.0°C (41°F) [RH = 76%]
Pressure (altimeter): 29.65 inches Hg (1004.0 mb)
Winds: from the ESE (120 degrees) at 17 MPH (15 knots; 7.7 m/s)
Visibility: 6 or more miles (10+ km)
Ceiling: 2200 feet AGL
Clouds: scattered clouds at 1500 feet AGL
broken clouds at 2200 feet AGL
Weather: -RA -DZ  (light rain, light drizzle)

METAR text: BIRK 190600Z 12020KT 8000 -DZ SCT016 BKN030 09/06 Q1006
Conditions at: BIRK (REYKJAVIK (NOTAM, IS) observed 0600 UTC 19 April 2019
Temperature: 9.0°C (48°F)
Dewpoint: 6.0°C (43°F) [RH = 81%]
Pressure (altimeter): 29.70 inches Hg (1006.0 mb)
Winds: from the ESE (120 degrees) at 23 MPH (20 knots; 10.3 m/s)
Visibility: 5 miles ( 8 km)
Ceiling: 3000 feet AGL
Clouds: scattered clouds at 1600 feet AGL
broken clouds at 3000 feet AGL
Weather: -DZ  (light drizzle)

METAR text: BIRK 190500Z 15024KT 9999 FEW016 SCT030 08/05 Q1005
Conditions at: BIRK (REYKJAVIK (NOTAM, IS) observed 0500 UTC 19 April 2019
Temperature: 8.0°C (46°F)
Dewpoint: 5.0°C (41°F) [RH = 81%]
Pressure (altimeter): 29.68 inches Hg (1005.0 mb)
Winds: from the SSE (150 degrees) at 28 MPH (24 knots; 12.3 m/s)
Visibility: 6 or more miles (10+ km)
Ceiling: at least 12,000 feet AGL
Clouds: few clouds at 1600 feet AGL
scattered clouds at 3000 feet AGL
Weather: no significant weather observed at this time

METAR text: BIRK 190400Z 14013KT 9999 BKN017 OVC022 08/05 Q1006
Conditions at: BIRK (REYKJAVIK (NOTAM, IS) observed 0400 UTC 19 April 2019
Temperature: 8.0°C (46°F)
Dewpoint: 5.0°C (41°F) [RH = 81%]
Pressure (altimeter): 29.70 inches Hg (1006.0 mb)
Winds: from the SE (140 degrees) at 15 MPH (13 knots; 6.7 m/s)
Visibility: 6 or more miles (10+ km)
Ceiling: 1700 feet AGL
Clouds: broken clouds at 1700 feet AGL
overcast cloud deck at 2200 feet AGL
Weather: no significant weather observed at this time

METAR text: BIRK 190300Z 14013KT 110V170 9999 SCT014 BKN025 08/04 Q1007
Conditions at: BIRK (REYKJAVIK (NOTAM, IS) observed 0300 UTC 19 April 2019
Temperature: 8.0°C (46°F)
Dewpoint: 4.0°C (39°F) [RH = 76%]
Pressure (altimeter): 29.73 inches Hg (1007.0 mb)
Winds: from the SE (140 degrees) at 15 MPH (13 knots; 6.7 m/s)
Visibility: 6 or more miles (10+ km)
Ceiling: 2500 feet AGL
Clouds: scattered clouds at 1400 feet AGL
broken clouds at 2500 feet AGL
Weather: no significant weather observed at this time

METAR text: BIRK 190200Z 15015KT 9999 BKN018 08/04 Q1007
Conditions at: BIRK (REYKJAVIK (NOTAM, IS) observed 0200 UTC 19 April 2019
Temperature: 8.0°C (46°F)
Dewpoint: 4.0°C (39°F) [RH = 76%]
Pressure (altimeter): 29.73 inches Hg (1007.0 mb)
Winds: from the SSE (150 degrees) at 17 MPH (15 knots; 7.7 m/s)
Visibility: 6 or more miles (10+ km)
Ceiling: 1800 feet AGL
Clouds: broken clouds at 1800 feet AGL
Weather: no significant weather observed at this time

METAR text: BIRK 190100Z 16014KT 9999 FEW019 07/03 Q1007
Conditions at: BIRK (REYKJAVIK (NOTAM, IS) observed 0100 UTC 19 April 2019
Temperature: 7.0°C (45°F)
Dewpoint: 3.0°C (37°F) [RH = 76%]
Pressure (altimeter): 29.73 inches Hg (1007.0 mb)
Winds: from the SSE (160 degrees) at 16 MPH (14 knots; 7.2 m/s)
Visibility: 6 or more miles (10+ km)
Ceiling: at least 12,000 feet AGL
Clouds: few clouds at 1900 feet AGL
Weather: no significant weather observed at this time

METAR text: BIRK 190000Z 16017KT CAVOK 08/04 Q1007
Conditions at: BIRK (REYKJAVIK (NOTAM, IS) observed 0000 UTC 19 April 2019
Temperature: 8.0°C (46°F)
Dewpoint: 4.0°C (39°F) [RH = 76%]
Pressure (altimeter): 29.73 inches Hg (1007.0 mb)
Winds: from the SSE (160 degrees) at 20 MPH (17 knots; 8.7 m/s)
Visibility: 6 or more miles (10+ km)
Ceiling: ceiling and visibility are OK
Clouds: unknown
Weather: no significant weather observed at this time

METAR text: BIRK 182300Z 17016KT 9999 FEW018 08/05 Q1006
Conditions at: BIRK (REYKJAVIK (NOTAM, IS) observed 2300 UTC 18 April 2019
Temperature: 8.0°C (46°F)
Dewpoint: 5.0°C (41°F) [RH = 81%]
Pressure (altimeter): 29.70 inches Hg (1006.0 mb)
Winds: from the S (170 degrees) at 18 MPH (16 knots; 8.2 m/s)
Visibility: 6 or more miles (10+ km)
Ceiling: at least 12,000 feet AGL
Clouds: few clouds at 1800 feet AGL
Weather: no significant weather observed at this time

METAR text: BIRK 182200Z 16017KT 9999 FEW018 09/05 Q1005
Conditions at: BIRK (REYKJAVIK (NOTAM, IS) observed 2200 UTC 18 April 2019
Temperature: 9.0°C (48°F)
Dewpoint: 5.0°C (41°F) [RH = 76%]
Pressure (altimeter): 29.68 inches Hg (1005.0 mb)
Winds: from the SSE (160 degrees) at 20 MPH (17 knots; 8.7 m/s)
Visibility: 6 or more miles (10+ km)
Ceiling: at least 12,000 feet AGL
Clouds: few clouds at 1800 feet AGL
Weather: no significant weather observed at this time

METAR text: BIRK 182100Z 15018KT 9999 FEW018 SCT027 BKN041 08/05 Q1005
Conditions at: BIRK (REYKJAVIK (NOTAM, IS) observed 2100 UTC 18 April 2019
Temperature: 8.0°C (46°F)
Dewpoint: 5.0°C (41°F) [RH = 81%]
Pressure (altimeter): 29.68 inches Hg (1005.0 mb)
Winds: from the SSE (150 degrees) at 21 MPH (18 knots; 9.3 m/s)
Visibility: 6 or more miles (10+ km)
Ceiling: 4100 feet AGL
Clouds: few clouds at 1800 feet AGL
scattered clouds at 2700 feet AGL
broken clouds at 4100 feet AGL
Weather: no significant weather observed at this time

METAR text: BIRK 182000Z 15022KT 9999 FEW022 SCT034 BKN047 08/05 Q1004
Conditions at: BIRK (REYKJAVIK (NOTAM, IS) observed 2000 UTC 18 April 2019
Temperature: 8.0°C (46°F)
Dewpoint: 5.0°C (41°F) [RH = 81%]
Pressure (altimeter): 29.65 inches Hg (1004.0 mb)
Winds: from the SSE (150 degrees) at 25 MPH (22 knots; 11.3 m/s)
Visibility: 6 or more miles (10+ km)
Ceiling: 4700 feet AGL
Clouds: few clouds at 2200 feet AGL
scattered clouds at 3400 feet AGL
broken clouds at 4700 feet AGL
Weather: no significant weather observed at this time

METAR text: BIRK 181900Z 14017KT 110V170 9999 FEW018 BKN024 BKN055 09/04 Q1005
Conditions at: BIRK (REYKJAVIK (NOTAM, IS) observed 1900 UTC 18 April 2019
Temperature: 9.0°C (48°F)
Dewpoint: 4.0°C (39°F) [RH = 71%]
Pressure (altimeter): 29.68 inches Hg (1005.0 mb)
Winds: from the SE (140 degrees) at 20 MPH (17 knots; 8.7 m/s)
Visibility: 6 or more miles (10+ km)
Ceiling: 2400 feet AGL
Clouds: few clouds at 1800 feet AGL
broken clouds at 2400 feet AGL
broken clouds at 5500 feet AGL
Weather: no significant weather observed at this time

METAR text: BIRK 181800Z 15024G36KT 9999 -DZ SCT021 BKN041 BKN089 09/05 Q1005
Conditions at: BIRK (REYKJAVIK (NOTAM, IS) observed 1800 UTC 18 April 2019
Temperature: 9.0°C (48°F)
Dewpoint: 5.0°C (41°F) [RH = 76%]
Pressure (altimeter): 29.68 inches Hg (1005.0 mb)
Winds: from the SSE (150 degrees) at 28 MPH (24 knots; 12.3 m/s)
gusting to 41 MPH (36 knots; 18.5 m/s)
Visibility: 6 or more miles (10+ km)
Ceiling: 4100 feet AGL
Clouds: scattered clouds at 2100 feet AGL
broken clouds at 4100 feet AGL
broken clouds at 8900 feet AGL
Weather: -DZ  (light drizzle)

METAR text: BIRK 181700Z 12020G30KT 8000 -DZRA FEW018 SCT026 OVC049 08/05 Q1005
Conditions at: BIRK (REYKJAVIK (NOTAM, IS) observed 1700 UTC 18 April 2019
Temperature: 8.0°C (46°F)
Dewpoint: 5.0°C (41°F) [RH = 81%]
Pressure (altimeter): 29.68 inches Hg (1005.0 mb)
Winds: from the ESE (120 degrees) at 23 MPH (20 knots; 10.3 m/s)
gusting to 34 MPH (30 knots; 15.4 m/s)
Visibility: 5 miles ( 8 km)
Ceiling: 4900 feet AGL
Clouds: few clouds at 1800 feet AGL
scattered clouds at 2600 feet AGL
overcast cloud deck at 4900 feet AGL
Weather: -DZ -RA  (light drizzle, light rain)

METAR text: BIRK 181637Z 13019KT 3000 -RA SCT018 BKN041 OVC069 08/04 Q1005
Conditions at: BIRK (REYKJAVIK (NOTAM, IS) observed 1637 UTC 18 April 2019
Temperature: 8.0°C (46°F)
Dewpoint: 4.0°C (39°F) [RH = 76%]
Pressure (altimeter): 29.68 inches Hg (1005.0 mb)
Winds: from the SE (130 degrees) at 22 MPH (19 knots; 9.8 m/s)
Visibility: 1.86 miles (2.99 km)
Ceiling: 4100 feet AGL
Clouds: scattered clouds at 1800 feet AGL
broken clouds at 4100 feet AGL
overcast cloud deck at 6900 feet AGL
Weather: -RA  (light rain)

METAR text: BIRK 181600Z 13018KT 9999 -RA SCT016 BKN022 OVC025 08/04 Q1006
Conditions at: BIRK (REYKJAVIK (NOTAM, IS) observed 1600 UTC 18 April 2019
Temperature: 8.0°C (46°F)
Dewpoint: 4.0°C (39°F) [RH = 76%]
Pressure (altimeter): 29.70 inches Hg (1006.0 mb)
Winds: from the SE (130 degrees) at 21 MPH (18 knots; 9.3 m/s)
Visibility: 6 or more miles (10+ km)
Ceiling: 2200 feet AGL
Clouds: scattered clouds at 1600 feet AGL
broken clouds at 2200 feet AGL
overcast cloud deck at 2500 feet AGL
Weather: -RA  (light rain)

METAR text: BIRK 181500Z 13016KT 9999 BKN017 BKN024 OVC100 08/04 Q1006
Conditions at: BIRK (REYKJAVIK (NOTAM, IS) observed 1500 UTC 18 April 2019
Temperature: 8.0°C (46°F)
Dewpoint: 4.0°C (39°F) [RH = 76%]
Pressure (altimeter): 29.70 inches Hg (1006.0 mb)
Winds: from the SE (130 degrees) at 18 MPH (16 knots; 8.2 m/s)
Visibility: 6 or more miles (10+ km)
Ceiling: 1700 feet AGL
Clouds: broken clouds at 1700 feet AGL
broken clouds at 2400 feet AGL
overcast cloud deck at 10000 feet AGL
Weather: no significant weather observed at this time

METAR text: BIRK 181400Z 15020KT 8500 SCT017 BKN024 BKN033 08/03 Q1007
Conditions at: BIRK (REYKJAVIK (NOTAM, IS) observed 1400 UTC 18 April 2019
Temperature: 8.0°C (46°F)
Dewpoint: 3.0°C (37°F) [RH = 71%]
Pressure (altimeter): 29.73 inches Hg (1007.0 mb)
Winds: from the SSE (150 degrees) at 23 MPH (20 knots; 10.3 m/s)
Visibility: 5 miles ( 8 km)
Ceiling: 2400 feet AGL
Clouds: scattered clouds at 1700 feet AGL
broken clouds at 2400 feet AGL
broken clouds at 3300 feet AGL
Weather: no significant weather observed at this time

Forecast for: BIRK (REYKJAVIK (NOTAM, IS)
Text: TAF BIRK 200108Z 2003/2103 18016KT 9999 -SHRA BKN025 TX08/2015Z TN05/2006Z
Forecast period: 0300 to 1500 UTC 20 April 2019
Forecast type: FROM: standard forecast or significant change
Winds: from the S (180 degrees) at 18 MPH (16 knots; 8.2 m/s)
Visibility: 6 or more miles 10+ km)
Ceiling: 2500 feet AGL
Clouds: broken clouds at 2500 feet AGL
Weather: -SHRA  (light rain showers)
Text: TEMPO 2003/2016 19020G30KT 4000 SHRA BKN014CB OVC025
Forecast period: 0300 to 1600 UTC 20 April 2019
Forecast type: TEMPORARY: The following changes expected for less than half the time period
Winds: from the S (190 degrees) at 23 MPH (20 knots; 10.3 m/s)
gusting to 34 MPH (30 knots; 15.4 m/s)
Visibility: 2.49 miles (4.01 km)
Ceiling: 1400 feet AGL
Clouds: broken clouds at 1400 feet AGL
overcast cloud deck at 2500 feet AGL
Weather: SHRA  (rain showers)
Text: BECMG 2015/2017 25015KT
Forecast period: 1500 UTC 20 April 2019 to 0000 UTC 21 April 2019
Forecast type: BECOMING: Conditions expected to become as follows by 1700 UTC 20 April 2019
Winds: from the WSW (250 degrees) at 17 MPH (15 knots; 7.7 m/s)
Visibility: 6 or more miles 10+ km)
Ceiling: 2500 feet AGL
Clouds: broken clouds at 2500 feet AGL
Weather: -SHRA  (light rain showers)
Text: BECMG 2100/2103 23005KT
Forecast period: 0000 to 0300 UTC 21 April 2019
Forecast type: BECOMING: Conditions expected to become as follows by 0300 UTC 21 April 2019
Winds: from the SW (230 degrees) at 6 MPH (5 knots; 2.6 m/s)
Visibility: 6 or more miles 10+ km)
Ceiling: 2500 feet AGL
Clouds: broken clouds at 2500 feet AGL
Weather: -SHRA  (light rain showers)